createdAt,value
2022-10-14T00:02:22.830Z,99383.09
2022-10-14T00:04:49.263Z,99378.28
2022-10-14T00:07:15.869Z,99387.19
2022-10-14T00:09:42.762Z,99379.41
2022-10-14T00:12:09.454Z,99378.53
2022-10-14T00:14:35.899Z,99374.88
2022-10-14T00:17:02.653Z,99373.16
2022-10-14T00:19:29.084Z,99368.09
2022-10-14T00:21:55.644Z,99370.34
2022-10-14T00:24:22.613Z,99378.53
2022-10-14T00:26:49.103Z,99370.47
2022-10-14T00:29:18.814Z,99369.50
2022-10-14T00:31:47.249Z,99371.19
2022-10-14T00:34:15.860Z,99368.00
2022-10-14T00:36:43.475Z,99365.22
2022-10-14T00:39:10.926Z,99360.91
2022-10-14T00:41:38.271Z,99359.63
2022-10-14T00:44:15.704Z,99361.19
2022-10-14T00:46:47.090Z,99362.38
2022-10-14T00:49:15.511Z,99361.69
2022-10-14T00:51:46.922Z,99358.38
2022-10-14T00:54:16.714Z,99361.53
2022-10-14T00:56:44.906Z,99358.91
2022-10-14T00:59:11.987Z,99361.28
2022-10-14T01:01:38.407Z,99363.59
2022-10-14T01:04:04.984Z,99354.84
2022-10-14T01:06:47.595Z,99355.53
2022-10-14T01:10:04.055Z,99356.94
2022-10-14T01:12:36.241Z,99354.84
2022-10-14T01:15:23.040Z,99353.53
2022-10-14T01:18:31.047Z,99352.91
2022-10-14T01:21:01.585Z,99350.91
2022-10-14T01:23:37.160Z,99347.53
2022-10-14T01:26:15.800Z,99347.31
2022-10-14T01:29:13.063Z,99345.78
2022-10-14T01:31:47.781Z,99340.06
2022-10-14T01:34:22.473Z,99332.47
2022-10-14T01:36:55.856Z,99322.63
2022-10-14T01:39:29.712Z,99323.31
2022-10-14T01:42:02.323Z,99321.41
2022-10-14T01:44:31.031Z,99317.25
2022-10-14T01:46:59.272Z,99313.91
2022-10-14T01:49:35.641Z,99312.69
2022-10-14T01:52:16.427Z,99298.94
2022-10-14T01:54:46.881Z,99295.72
2022-10-14T01:57:19.451Z,99293.72
2022-10-14T01:59:47.615Z,99299.94
2022-10-14T02:02:14.365Z,99288.84
2022-10-14T02:04:41.054Z,99296.63
2022-10-14T02:07:16.805Z,99282.66
2022-10-14T02:09:56.594Z,99283.47
2022-10-14T02:12:37.932Z,99273.88
2022-10-14T02:15:21.853Z,99278.25
2022-10-14T02:17:57.345Z,99272.50
2022-10-14T02:20:53.380Z,99270.19
2022-10-14T02:23:22.161Z,99275.78
2022-10-14T02:25:50.137Z,99270.34
2022-10-14T02:28:21.186Z,99257.38
2022-10-14T02:31:04.675Z,99255.50
2022-10-14T02:33:36.405Z,99253.97
2022-10-14T02:36:05.686Z,99249.28
2022-10-14T02:38:33.324Z,99256.34
2022-10-14T02:41:04.558Z,99252.00
2022-10-14T02:43:31.266Z,99248.28
2022-10-14T02:46:00.505Z,99247.28
2022-10-14T02:48:27.070Z,99251.66
2022-10-14T02:50:53.499Z,99248.44
2022-10-14T02:53:20.142Z,99245.59
2022-10-14T02:55:46.806Z,99254.34
2022-10-14T02:58:13.321Z,99250.19
2022-10-14T03:00:39.745Z,99241.59
2022-10-14T03:03:06.881Z,99246.47
2022-10-14T03:05:33.498Z,99244.13
2022-10-14T03:08:00.244Z,99242.97
2022-10-14T03:10:26.856Z,99229.59
2022-10-14T03:12:53.510Z,99228.00
2022-10-14T03:15:19.893Z,99223.28
2022-10-14T03:17:46.392Z,99226.28
2022-10-14T03:20:12.840Z,99229.81
2022-10-14T03:22:39.343Z,99229.13
2022-10-14T03:25:06.289Z,99235.50
2022-10-14T03:27:32.888Z,99240.88
2022-10-14T03:29:59.430Z,99228.16
2022-10-14T03:32:26.133Z,99234.66
2022-10-14T03:34:52.531Z,99228.59
2022-10-14T03:37:19.266Z,99239.22
2022-10-14T03:39:45.743Z,99231.13
2022-10-14T03:42:12.589Z,99231.44
2022-10-14T03:44:38.958Z,99236.53
2022-10-14T03:47:05.531Z,99240.19
2022-10-14T03:49:31.964Z,99228.28
2022-10-14T03:51:58.381Z,99223.69
2022-10-14T03:54:24.925Z,99223.22
2022-10-14T03:56:51.315Z,99226.44
2022-10-14T03:59:17.860Z,99228.06
2022-10-14T04:01:44.334Z,99222.06
2022-10-14T04:04:11.291Z,99220.69
2022-10-14T04:06:37.741Z,99219.53
2022-10-14T04:09:05.254Z,99227.63
2022-10-14T04:11:31.677Z,99220.69
2022-10-14T04:13:59.295Z,99224.75
2022-10-14T04:16:27.014Z,99216.19
2022-10-14T04:18:54.092Z,99213.00
2022-10-14T04:21:20.888Z,99215.75
2022-10-14T04:23:47.585Z,99208.13
2022-10-14T04:26:14.199Z,99203.59
2022-10-14T04:28:40.787Z,99209.31
2022-10-14T04:31:07.737Z,99205.06
2022-10-14T04:33:35.020Z,99201.69
2022-10-14T04:36:04.216Z,99210.22
2022-10-14T04:38:30.828Z,99199.84
2022-10-14T04:40:58.336Z,99198.63
2022-10-14T04:43:25.081Z,99191.78
2022-10-14T04:45:51.594Z,99194.63
2022-10-14T04:48:18.805Z,99190.72
2022-10-14T04:50:45.368Z,99192.06
2022-10-14T04:53:13.871Z,99191.25
2022-10-14T04:55:41.997Z,99191.41
2022-10-14T04:58:08.437Z,99183.63
2022-10-14T05:00:34.984Z,99186.69
2022-10-14T05:03:01.388Z,99184.66
2022-10-14T05:05:28.109Z,99177.13
2022-10-14T05:07:54.564Z,99177.78
2022-10-14T05:10:21.718Z,99172.25
2022-10-14T05:12:48.722Z,99175.31
2022-10-14T05:15:15.747Z,99165.88
2022-10-14T05:17:44.725Z,99172.56
2022-10-14T05:20:12.552Z,99174.47
2022-10-14T05:22:39.794Z,99173.25
2022-10-14T05:25:06.873Z,99170.91
2022-10-14T05:27:33.298Z,99172.63
2022-10-14T05:30:00.907Z,99163.72
2022-10-14T05:32:27.355Z,99164.88
2022-10-14T05:34:54.109Z,99166.88
2022-10-14T05:37:20.541Z,99159.63
2022-10-14T05:39:47.051Z,99163.72
2022-10-14T05:42:13.498Z,99159.63
2022-10-14T05:44:40.047Z,99170.91
2022-10-14T05:47:06.494Z,99169.03
2022-10-14T05:49:33.006Z,99171.25
2022-10-14T05:51:59.542Z,99163.50
2022-10-14T05:54:25.934Z,99157.44
2022-10-14T05:56:52.600Z,99158.44
2022-10-14T05:59:19.467Z,99158.44
2022-10-14T06:01:46.013Z,99165.38
2022-10-14T06:04:20.428Z,99168.72
2022-10-14T06:06:47.116Z,99164.88
2022-10-14T06:09:13.828Z,99167.56
2022-10-14T06:11:40.530Z,99162.31
2022-10-14T06:14:07.235Z,99170.25
2022-10-14T06:16:33.977Z,99167.75
2022-10-14T06:19:00.592Z,99174.16
2022-10-14T06:21:27.237Z,99173.50
2022-10-14T06:23:53.865Z,99165.13
2022-10-14T06:26:20.240Z,99158.25
2022-10-14T06:28:46.877Z,99160.09
2022-10-14T06:31:13.398Z,99163.31
2022-10-14T06:33:40.118Z,99160.63
2022-10-14T06:36:07.132Z,99151.91
2022-10-14T06:38:33.730Z,99148.19
2022-10-14T06:41:00.282Z,99154.97
2022-10-14T06:43:26.702Z,99148.72
2022-10-14T06:45:56.996Z,99155.50
2022-10-14T06:48:23.394Z,99152.97
2022-10-14T06:50:52.784Z,99146.28
2022-10-14T06:53:19.381Z,99151.28
2022-10-14T06:55:46.336Z,99144.22
2022-10-14T06:58:12.713Z,99139.34
2022-10-14T07:00:39.220Z,99142.91
2022-10-14T07:03:06.124Z,99138.19
2022-10-14T07:05:32.685Z,99137.50
2022-10-14T07:10:25.692Z,99138.88
2022-10-14T07:12:56.200Z,99141.25
2022-10-14T07:15:23.332Z,99137.19
2022-10-14T07:17:49.757Z,99137.56
2022-10-14T07:20:16.666Z,99134.16
2022-10-14T07:22:43.175Z,99138.72
2022-10-14T07:25:10.375Z,99137.34
2022-10-14T07:27:37.061Z,99141.25
2022-10-14T07:30:05.719Z,99145.63
2022-10-14T07:32:36.760Z,99149.31
2022-10-14T07:35:03.986Z,99149.16
2022-10-14T07:37:30.594Z,99150.16
2022-10-14T07:39:56.977Z,99147.97
2022-10-14T07:42:23.513Z,99136.56
2022-10-14T07:44:50.318Z,99144.13
2022-10-14T07:47:17.002Z,99142.09
2022-10-14T07:49:43.460Z,99144.16
2022-10-14T07:52:09.896Z,99141.28
2022-10-14T07:54:36.489Z,99135.88
2022-10-14T07:57:02.982Z,99139.28
2022-10-14T07:59:29.865Z,99140.63
2022-10-14T08:01:56.726Z,99135.91
2022-10-14T08:04:24.329Z,99146.38
2022-10-14T08:06:52.079Z,99137.97
2022-10-14T08:09:19.785Z,99137.97
2022-10-14T08:11:47.660Z,99136.63
2022-10-14T08:14:14.215Z,99142.53
2022-10-14T08:16:40.905Z,99141.69
2022-10-14T08:19:13.848Z,99129.41
2022-10-14T08:21:42.534Z,99143.72
2022-10-14T08:24:09.659Z,99135.97
2022-10-14T08:26:38.861Z,99133.63
2022-10-14T08:29:15.404Z,99122.53
2022-10-14T08:31:41.784Z,99122.03
2022-10-14T08:34:08.411Z,99118.47
2022-10-14T08:36:34.857Z,99120.84
2022-10-14T08:39:01.313Z,99119.69
2022-10-14T08:42:01.385Z,99111.94
2022-10-14T08:44:36.873Z,99106.69
2022-10-14T08:47:05.073Z,99093.38
2022-10-14T08:49:59.922Z,99092.03
2022-10-14T08:52:44.920Z,99096.03
2022-10-14T08:55:29.205Z,99096.22
2022-10-14T08:58:16.073Z,99084.56
2022-10-14T09:00:44.994Z,99076.31
2022-10-14T09:03:33.246Z,99079.50
2022-10-14T09:06:03.488Z,99079.84
2022-10-14T09:08:43.306Z,99071.19
2022-10-14T09:11:34.387Z,99054.97
2022-10-14T09:14:02.496Z,99066.59
2022-10-14T09:16:33.045Z,99066.25
2022-10-14T09:19:02.414Z,99058.97
2022-10-14T09:21:47.909Z,99059.38
2022-10-14T09:24:23.508Z,99058.31
2022-10-14T09:27:18.019Z,99037.69
2022-10-14T09:29:50.161Z,99035.13
2022-10-14T09:32:31.905Z,99037.00
2022-10-14T09:34:59.614Z,99039.56
2022-10-14T09:37:31.966Z,99030.41
2022-10-14T09:40:32.155Z,99024.13
2022-10-14T09:43:12.066Z,99025.09
2022-10-14T09:45:47.726Z,99035.38
2022-10-14T09:48:33.602Z,99024.69
2022-10-14T09:51:03.249Z,99023.66
2022-10-14T09:53:31.640Z,99029.31
2022-10-14T09:56:01.142Z,99034.34
2022-10-14T09:58:57.358Z,99027.50
2022-10-14T10:01:25.185Z,99017.06
2022-10-14T10:03:53.451Z,99019.41
2022-10-14T10:06:26.424Z,99010.25
2022-10-14T10:08:52.731Z,99016.34
2022-10-14T10:11:39.418Z,99002.09
2022-10-14T10:14:25.239Z,99003.31
2022-10-14T10:17:13.986Z,98992.53
2022-10-14T10:19:46.377Z,98979.41
2022-10-14T10:22:24.250Z,98980.13
2022-10-14T10:25:03.618Z,98979.81
2022-10-14T10:27:37.893Z,98972.81
2022-10-14T10:30:23.451Z,98974.59
2022-10-14T10:33:08.175Z,98964.97
2022-10-14T10:35:34.528Z,98960.59
2022-10-14T10:38:05.588Z,98959.41
2022-10-14T10:41:08.360Z,98959.78
2022-10-14T10:43:43.757Z,98955.66
2022-10-14T10:46:16.104Z,98956.00
2022-10-14T10:48:47.413Z,98950.22
2022-10-14T10:51:22.479Z,98956.09
2022-10-14T10:54:26.706Z,98946.66
2022-10-14T10:56:59.165Z,98942.03
2022-10-14T10:59:33.581Z,98948.16
2022-10-14T11:02:12.471Z,98944.44
2022-10-14T11:05:07.616Z,98934.63
2022-10-14T11:08:14.156Z,98944.91
2022-10-14T11:11:16.655Z,98935.78
2022-10-14T11:13:44.143Z,98934.72
2022-10-14T11:16:26.279Z,98928.50
2022-10-14T11:19:02.765Z,98925.59
2022-10-14T11:21:35.189Z,98918.03
2022-10-14T11:24:26.609Z,98918.31
2022-10-14T11:27:08.473Z,98917.84
2022-10-14T11:29:56.545Z,98918.88
2022-10-14T11:32:52.848Z,98918.41
2022-10-14T11:38:25.185Z,98916.19
2022-10-14T11:41:00.661Z,98918.22
2022-10-14T11:43:32.175Z,98916.06
2022-10-14T11:46:19.720Z,98916.91
2022-10-14T11:48:51.158Z,98921.94
2022-10-14T11:51:21.463Z,98923.50
2022-10-14T11:54:03.821Z,98924.06
2022-10-14T11:56:48.357Z,98921.81
2022-10-14T11:59:33.596Z,98902.53
2022-10-14T12:02:12.042Z,98905.22
2022-10-14T12:04:43.819Z,98897.84
2022-10-14T12:07:23.938Z,98899.44
2022-10-14T12:10:29.901Z,98901.28
2022-10-14T12:12:57.240Z,98904.25
2022-10-14T12:15:26.684Z,98901.38
2022-10-14T12:18:02.551Z,98898.84
2022-10-14T12:21:04.120Z,98896.63
2022-10-14T12:23:46.001Z,98896.44
2022-10-14T12:26:24.629Z,98902.66
2022-10-14T12:28:54.095Z,98900.63
2022-10-14T12:31:38.457Z,98894.91
2022-10-14T12:34:10.858Z,98891.38
2022-10-14T12:36:38.802Z,98883.28
2022-10-14T12:39:17.191Z,98882.56
2022-10-14T12:42:00.202Z,98884.88
2022-10-14T12:44:58.368Z,98884.59
2022-10-14T12:47:34.732Z,98882.66
2022-10-14T12:50:05.173Z,98879.66
2022-10-14T12:52:39.453Z,98872.22
2022-10-14T12:55:16.814Z,98871.94
2022-10-14T12:57:43.674Z,98874.81
2022-10-14T13:00:22.491Z,98869.53
2022-10-14T13:02:56.958Z,98863.72
2022-10-14T13:05:26.279Z,98858.22
2022-10-14T13:08:20.190Z,98855.50
2022-10-14T13:10:58.821Z,98848.41
2022-10-14T13:13:49.179Z,98851.47
2022-10-14T13:16:21.562Z,98831.88
2022-10-14T13:18:52.542Z,98839.53
2022-10-14T13:21:34.605Z,98826.00
2022-10-14T13:24:22.934Z,98829.50
2022-10-14T13:26:49.318Z,98819.16
2022-10-14T13:29:50.165Z,98818.25
2022-10-14T13:32:41.414Z,98815.94
2022-10-14T13:35:29.140Z,98814.16
2022-10-14T13:38:06.326Z,98813.44
2022-10-14T13:40:42.995Z,98814.19
2022-10-14T13:43:15.376Z,98810.81
2022-10-14T13:45:48.802Z,98822.56
2022-10-14T13:48:28.104Z,98811.66
2022-10-14T13:51:23.923Z,98809.91
2022-10-14T13:53:57.041Z,98811.19
2022-10-14T13:56:29.846Z,98798.31
2022-10-14T13:58:57.848Z,98803.09
2022-10-14T14:01:39.193Z,98796.16
2022-10-14T14:04:06.042Z,98793.28
2022-10-14T14:06:40.051Z,98797.13
2022-10-14T14:09:26.035Z,98795.44
2022-10-14T14:11:59.796Z,98797.50
2022-10-14T14:14:37.833Z,98802.91
2022-10-14T14:17:07.782Z,98792.81
2022-10-14T14:19:37.134Z,98795.88
2022-10-14T14:22:28.927Z,98793.00
2022-10-14T14:25:33.339Z,98794.50
2022-10-14T14:28:03.326Z,98792.81
2022-10-14T14:30:38.613Z,98798.31
2022-10-14T14:33:11.753Z,98803.72
2022-10-14T14:35:38.434Z,98792.09
2022-10-14T14:38:04.832Z,98795.81
2022-10-14T14:40:31.798Z,98787.97
2022-10-14T14:43:03.673Z,98794.78
2022-10-14T14:45:34.911Z,98793.69
2022-10-14T14:48:07.580Z,98787.34
2022-10-14T14:50:40.055Z,98778.59
2022-10-14T14:53:23.778Z,98775.88
2022-10-14T14:55:53.422Z,98781.94
2022-10-14T14:58:43.995Z,98780.81
2022-10-14T15:01:20.329Z,98769.66
2022-10-14T15:04:12.396Z,98777.06
2022-10-14T15:06:50.716Z,98768.50
2022-10-14T15:09:24.228Z,98775.88
2022-10-14T15:11:54.704Z,98768.13
2022-10-14T15:14:44.003Z,98772.34
2022-10-14T15:17:27.548Z,98768.13
2022-10-14T15:19:54.258Z,98760.75
2022-10-14T15:22:28.846Z,98759.19
2022-10-14T15:25:09.942Z,98757.50
2022-10-14T15:27:36.334Z,98754.91
2022-10-14T15:30:23.332Z,98749.22
2022-10-14T15:32:52.150Z,98745.03
2022-10-14T15:35:21.495Z,98744.56
2022-10-14T15:37:49.632Z,98737.03
2022-10-14T15:40:27.420Z,98736.38
2022-10-14T15:42:53.931Z,98736.09
2022-10-14T15:45:20.679Z,98727.59
2022-10-14T15:47:54.059Z,98733.19
2022-10-14T15:50:24.156Z,98739.63
2022-10-14T15:52:53.276Z,98731.53
2022-10-14T15:55:28.182Z,98733.94
2022-10-14T15:57:54.654Z,98730.28
2022-10-14T16:00:23.904Z,98724.41
2022-10-14T16:02:59.054Z,98725.25
2022-10-14T16:05:26.017Z,98728.97
2022-10-14T16:07:52.684Z,98722.09
2022-10-14T16:10:21.482Z,98717.88
2022-10-14T16:12:49.027Z,98720.13
2022-10-14T16:15:37.451Z,98718.34
2022-10-14T16:18:04.123Z,98718.06
2022-10-14T16:20:30.980Z,98719.06
2022-10-14T16:22:58.393Z,98712.38
2022-10-14T16:25:35.083Z,98708.81
2022-10-14T16:28:01.699Z,98711.34
2022-10-14T16:30:28.291Z,98706.50
2022-10-14T16:32:55.170Z,98718.31
2022-10-14T16:35:21.701Z,98713.28
2022-10-14T16:37:48.850Z,98707.22
2022-10-14T16:40:15.629Z,98710.66
2022-10-14T16:42:42.054Z,98711.88
2022-10-14T16:45:09.071Z,98716.44
2022-10-14T16:47:35.501Z,98723.13
2022-10-14T16:50:02.158Z,98720.56
2022-10-14T16:52:28.610Z,98717.56
2022-10-14T16:54:55.196Z,98716.34
2022-10-14T16:57:21.660Z,98718.22
2022-10-14T16:59:49.289Z,98710.66
2022-10-14T17:02:16.670Z,98698.13
2022-10-14T17:04:46.399Z,98701.28
2022-10-14T17:07:14.701Z,98709.09
2022-10-14T17:09:41.320Z,98710.94
2022-10-14T17:12:12.879Z,98710.13
2022-10-14T17:14:41.069Z,98710.59
2022-10-14T17:17:07.745Z,98714.50
2022-10-14T17:19:34.271Z,98710.41
2022-10-14T17:22:01.990Z,98706.69
2022-10-14T17:24:29.492Z,98705.38
2022-10-14T17:26:56.405Z,98713.28
2022-10-14T17:29:22.881Z,98715.50
2022-10-14T17:31:49.639Z,98711.97
2022-10-14T17:34:16.077Z,98717.84
2022-10-14T17:36:43.941Z,98710.13
2022-10-14T17:39:21.463Z,98711.50
2022-10-14T17:41:53.986Z,98709.19
2022-10-14T17:44:20.625Z,98705.25
2022-10-14T17:46:47.078Z,98702.56
2022-10-14T17:49:15.051Z,98695.50
2022-10-14T17:51:41.825Z,98698.75
2022-10-14T17:54:11.297Z,98699.56
2022-10-14T17:56:38.723Z,98685.25
2022-10-14T17:59:07.519Z,98670.94
2022-10-14T18:02:01.032Z,98672.78
2022-10-14T18:06:53.998Z,98679.09
2022-10-14T18:09:20.429Z,98688.22
2022-10-14T18:12:07.827Z,98689.88
2022-10-14T18:14:34.949Z,98686.81
2022-10-14T18:17:01.790Z,98686.34
2022-10-14T18:19:28.307Z,98694.09
2022-10-14T18:21:54.924Z,98687.47
2022-10-14T18:24:21.375Z,98688.69
2022-10-14T18:26:51.467Z,98694.75
2022-10-14T18:29:17.879Z,98702.19
2022-10-14T18:31:44.453Z,98697.25
2022-10-14T18:34:11.714Z,98695.03
2022-10-14T18:36:38.570Z,98691.00
2022-10-14T18:39:08.041Z,98699.38
2022-10-14T18:41:36.881Z,98700.59
2022-10-14T18:44:05.186Z,98701.25
2022-10-14T18:46:34.035Z,98695.03
2022-10-14T18:49:01.937Z,98695.38
2022-10-14T18:51:40.158Z,98689.34
2022-10-14T18:54:15.069Z,98683.88
2022-10-14T18:56:42.105Z,98681.34
2022-10-14T18:59:19.313Z,98681.19
2022-10-14T19:01:47.516Z,98674.09
2022-10-14T19:04:15.528Z,98680.50
2022-10-14T19:06:45.765Z,98669.53
2022-10-14T19:09:13.590Z,98672.41
2022-10-14T19:11:41.192Z,98683.59
2022-10-14T19:14:08.110Z,98669.06
2022-10-14T19:16:36.621Z,98669.34
2022-10-14T19:19:18.192Z,98671.56
2022-10-14T19:21:47.466Z,98659.31
2022-10-14T19:24:15.479Z,98659.31
2022-10-14T19:26:44.076Z,98657.78
2022-10-14T19:29:12.998Z,98659.00
2022-10-14T19:31:40.773Z,98663.28
2022-10-14T19:34:10.179Z,98659.84
2022-10-14T19:36:39.293Z,98653.31
2022-10-14T19:39:08.124Z,98650.72
2022-10-14T19:41:42.881Z,98659.94
2022-10-14T19:44:10.685Z,98665.06
2022-10-14T19:46:37.508Z,98660.66
2022-10-14T19:49:04.652Z,98657.13
2022-10-14T19:51:33.030Z,98662.72
2022-10-14T19:54:00.273Z,98656.50
2022-10-14T19:56:27.169Z,98649.75
2022-10-14T19:58:55.877Z,98651.56
2022-10-14T20:01:25.148Z,98646.72
2022-10-14T20:03:52.396Z,98642.06
2022-10-14T20:06:20.335Z,98637.78
2022-10-14T20:08:46.897Z,98640.56
2022-10-14T20:11:17.855Z,98647.66
2022-10-14T20:13:45.106Z,98631.81
2022-10-14T20:16:12.493Z,98632.28
2022-10-14T20:18:39.383Z,98626.72
2022-10-14T20:21:07.015Z,98617.38
2022-10-14T20:23:40.549Z,98617.50
2022-10-14T20:26:19.790Z,98612.47
2022-10-14T20:28:47.335Z,98614.22
2022-10-14T20:31:16.457Z,98611.88
2022-10-14T20:33:43.467Z,98610.16
2022-10-14T20:36:15.880Z,98620.38
2022-10-14T20:38:43.447Z,98622.06
2022-10-14T20:41:16.180Z,98623.81
2022-10-14T20:43:44.171Z,98624.28
2022-10-14T20:46:11.091Z,98615.25
2022-10-14T20:48:37.885Z,98609.88
2022-10-14T20:51:05.687Z,98604.47
2022-10-14T20:53:32.760Z,98606.31
2022-10-14T20:56:08.279Z,98611.53
2022-10-14T20:58:35.545Z,98608.00
2022-10-14T21:01:10.789Z,98596.09
2022-10-14T21:03:37.929Z,98590.69
2022-10-14T21:06:06.102Z,98589.19
2022-10-14T21:08:33.211Z,98583.97
2022-10-14T21:11:01.046Z,98593.13
2022-10-14T21:13:29.652Z,98591.41
2022-10-14T21:15:56.395Z,98597.38
2022-10-14T21:18:23.938Z,98603.16
2022-10-14T21:23:22.370Z,98600.28
2022-10-14T21:25:56.730Z,98593.59
2022-10-14T21:28:23.747Z,98590.22
2022-10-14T21:30:50.426Z,98588.53
2022-10-14T21:33:16.975Z,98593.47
2022-10-14T21:35:43.518Z,98597.19
2022-10-14T21:38:09.996Z,98600.06
2022-10-14T21:40:36.746Z,98597.19
2022-10-14T21:43:03.234Z,98599.88
2022-10-14T21:45:29.789Z,98599.69
2022-10-14T21:47:56.250Z,98593.47
2022-10-14T21:50:22.731Z,98594.13
2022-10-14T21:52:49.160Z,98597.53
2022-10-14T21:55:15.522Z,98599.22
2022-10-14T21:57:42.070Z,98599.28
2022-10-14T22:00:10.577Z,98594.56
2022-10-14T22:02:37.099Z,98593.63
2022-10-14T22:05:03.851Z,98587.22
2022-10-14T22:07:31.124Z,98576.13
2022-10-14T22:09:57.552Z,98575.97
2022-10-14T22:12:24.431Z,98579.47
2022-10-14T22:14:50.904Z,98583.88
2022-10-14T22:17:17.360Z,98578.66
2022-10-14T22:19:43.824Z,98591.31
2022-10-14T22:22:11.408Z,98587.38
2022-10-14T22:24:37.869Z,98576.31
2022-10-14T22:27:04.429Z,98570.75
2022-10-14T22:29:30.869Z,98569.72
2022-10-14T22:31:57.347Z,98570.00
2022-10-14T22:34:24.019Z,98576.59
2022-10-14T22:36:50.442Z,98565.34
2022-10-14T22:39:17.173Z,98557.91
2022-10-14T22:41:43.686Z,98561.25
2022-10-14T22:44:10.707Z,98564.53
2022-10-14T22:46:39.034Z,98562.00
2022-10-14T22:49:06.121Z,98574.84
2022-10-14T22:51:36.130Z,98567.41
2022-10-14T22:54:02.810Z,98564.06
2022-10-14T22:56:30.843Z,98562.38
2022-10-14T22:59:06.485Z,98550.28
2022-10-14T23:01:34.125Z,98556.03
2022-10-14T23:04:01.511Z,98554.00
2022-10-14T23:06:29.121Z,98552.59
2022-10-14T23:08:56.250Z,98554.81
2022-10-14T23:11:24.802Z,98558.06
2022-10-14T23:13:51.802Z,98558.06
2022-10-14T23:16:20.766Z,98562.13
2022-10-14T23:18:48.221Z,98554.69
2022-10-14T23:21:25.820Z,98553.50
2022-10-14T23:23:53.661Z,98548.47
2022-10-14T23:26:22.755Z,98547.28
2022-10-14T23:28:51.452Z,98552.56
2022-10-14T23:31:20.710Z,98558.47
2022-10-14T23:33:49.044Z,98566.72
2022-10-14T23:36:16.258Z,98560.56
2022-10-14T23:38:43.424Z,98565.97
2022-10-14T23:41:11.570Z,98566.44
2022-10-14T23:43:38.503Z,98568.31
2022-10-14T23:46:05.792Z,98566.63
2022-10-14T23:48:32.885Z,98566.44
2022-10-14T23:50:59.930Z,98564.38
2022-10-14T23:53:27.208Z,98573.50
2022-10-14T23:55:55.037Z,98569.78
2022-10-14T23:58:22.999Z,98577.88
